createdAt,value
2022-10-06T00:01:36.267Z,90.80
2022-10-06T00:04:04.212Z,90.90
2022-10-06T00:06:30.887Z,90.60
2022-10-06T00:08:58.567Z,90.60
2022-10-06T00:11:25.171Z,90.80
2022-10-06T00:13:51.822Z,91.20
2022-10-06T00:16:21.790Z,91.40
2022-10-06T00:18:48.516Z,91.10
2022-10-06T00:21:15.191Z,90.90
2022-10-06T00:23:41.877Z,91.10
2022-10-06T00:26:16.848Z,91.10
2022-10-06T00:28:44.736Z,91.50
2022-10-06T00:31:11.402Z,91.20
2022-10-06T00:33:38.047Z,91.20
2022-10-06T00:36:04.656Z,91.80
2022-10-06T00:38:31.810Z,91.40
2022-10-06T00:40:58.680Z,91.60
2022-10-06T00:43:48.403Z,91.50
2022-10-06T00:46:17.311Z,91.50
2022-10-06T00:48:45.250Z,91.90
2022-10-06T00:51:12.496Z,91.60
2022-10-06T00:53:41.736Z,91.40
2022-10-06T00:56:08.605Z,91.20
2022-10-06T00:58:35.220Z,91.00
2022-10-06T01:01:04.183Z,91.10
2022-10-06T01:03:30.904Z,91.30
2022-10-06T01:06:00.440Z,91.20
2022-10-06T01:08:27.707Z,91.00
2022-10-06T01:10:54.589Z,91.30
2022-10-06T01:13:21.527Z,91.20
2022-10-06T01:15:52.377Z,91.60
2022-10-06T01:18:21.020Z,91.40
2022-10-06T01:20:54.464Z,91.20
2022-10-06T01:23:22.474Z,91.30
2022-10-06T01:25:49.228Z,91.30
2022-10-06T01:28:15.956Z,91.40
2022-10-06T01:30:46.069Z,91.40
2022-10-06T01:33:12.734Z,91.30
2022-10-06T01:35:39.601Z,91.20
2022-10-06T01:38:06.195Z,91.10
2022-10-06T01:40:32.802Z,91.10
2022-10-06T01:43:00.649Z,90.80
2022-10-06T01:45:28.765Z,90.90
2022-10-06T01:47:55.404Z,90.80
2022-10-06T01:50:21.979Z,90.90
2022-10-06T01:52:48.709Z,90.80
2022-10-06T01:55:15.293Z,90.90
2022-10-06T01:57:42.207Z,91.10
2022-10-06T02:00:09.887Z,91.30
2022-10-06T02:02:36.526Z,91.40
2022-10-06T02:05:03.556Z,91.40
2022-10-06T02:07:30.194Z,91.50
2022-10-06T02:09:56.856Z,91.70
2022-10-06T02:12:24.600Z,91.80
2022-10-06T02:14:51.136Z,92.10
2022-10-06T02:17:17.764Z,92.00
2022-10-06T02:19:44.865Z,92.20
2022-10-06T02:22:11.545Z,92.20
2022-10-06T02:24:39.009Z,92.20
2022-10-06T02:27:06.850Z,92.30
2022-10-06T02:29:34.059Z,92.40
2022-10-06T02:32:02.774Z,92.50
2022-10-06T02:34:32.637Z,92.80
2022-10-06T02:36:59.515Z,93.00
2022-10-06T02:39:26.259Z,93.30
2022-10-06T02:41:52.944Z,93.20
2022-10-06T02:44:19.658Z,93.30
2022-10-06T02:46:46.372Z,93.30
2022-10-06T02:49:13.715Z,93.40
2022-10-06T02:51:43.581Z,93.20
2022-10-06T02:54:10.495Z,93.20
2022-10-06T02:56:38.014Z,93.10
2022-10-06T02:59:04.862Z,93.00
2022-10-06T03:01:31.601Z,92.90
2022-10-06T03:04:00.381Z,93.00
2022-10-06T03:06:31.460Z,93.10
2022-10-06T03:08:59.769Z,93.10
2022-10-06T03:11:27.579Z,93.00
2022-10-06T03:13:54.536Z,93.00
2022-10-06T03:16:22.592Z,93.00
2022-10-06T03:18:50.112Z,92.90
2022-10-06T03:21:17.444Z,93.00
2022-10-06T03:23:44.511Z,92.80
2022-10-06T03:26:12.196Z,92.90
2022-10-06T03:28:40.084Z,92.90
2022-10-06T03:31:09.674Z,92.70
2022-10-06T03:33:36.418Z,92.70
2022-10-06T03:36:13.471Z,92.80
2022-10-06T03:38:40.272Z,92.90
2022-10-06T03:41:08.585Z,92.90
2022-10-06T03:43:35.808Z,92.90
2022-10-06T03:46:03.034Z,92.90
2022-10-06T03:48:31.237Z,93.10
2022-10-06T03:51:01.898Z,93.30
2022-10-06T03:53:29.641Z,93.60
2022-10-06T03:56:04.371Z,93.70
2022-10-06T03:58:32.355Z,93.70
2022-10-06T04:01:17.187Z,93.60
2022-10-06T04:03:45.140Z,93.70
2022-10-06T04:06:15.563Z,93.70
2022-10-06T04:08:43.788Z,93.50
2022-10-06T04:11:11.840Z,93.50
2022-10-06T04:13:38.815Z,93.50
2022-10-06T04:16:23.133Z,93.30
2022-10-06T04:18:50.785Z,93.30
2022-10-06T04:21:17.724Z,93.10
2022-10-06T04:23:44.724Z,93.10
2022-10-06T04:26:21.691Z,93.10
2022-10-06T04:28:48.524Z,93.10
2022-10-06T04:31:17.025Z,92.90
2022-10-06T04:33:45.814Z,92.70
2022-10-06T04:36:17.358Z,92.90
2022-10-06T04:38:44.155Z,93.10
2022-10-06T04:41:15.295Z,93.10
2022-10-06T04:43:44.715Z,93.10
2022-10-06T04:46:38.051Z,93.30
2022-10-06T04:49:01.302Z,93.40
2022-10-06T04:51:28.176Z,93.20
2022-10-06T04:53:54.728Z,93.50
2022-10-06T04:56:30.265Z,93.30
2022-10-06T04:58:57.621Z,93.20
2022-10-06T05:01:28.933Z,93.30
2022-10-06T05:03:56.379Z,93.30
2022-10-06T05:06:24.382Z,93.20
2022-10-06T05:08:52.391Z,93.20
2022-10-06T05:11:22.441Z,93.30
2022-10-06T05:13:54.126Z,93.10
2022-10-06T05:16:22.328Z,93.10
2022-10-06T05:18:49.136Z,92.90
2022-10-06T05:21:17.198Z,92.90
2022-10-06T05:23:44.419Z,92.90
2022-10-06T05:28:52.893Z,92.90
2022-10-06T05:31:24.323Z,93.00
2022-10-06T05:33:50.999Z,92.90
2022-10-06T05:36:18.981Z,93.10
2022-10-06T05:38:45.857Z,93.40
2022-10-06T05:41:12.575Z,93.60
2022-10-06T05:43:39.644Z,93.90
2022-10-06T05:46:08.620Z,93.90
2022-10-06T05:48:35.262Z,93.90
2022-10-06T05:51:03.710Z,93.90
2022-10-06T05:53:30.946Z,94.00
2022-10-06T05:56:13.913Z,94.00
2022-10-06T05:58:41.693Z,94.10
2022-10-06T06:01:15.773Z,94.10
2022-10-06T06:03:44.621Z,94.00
2022-10-06T06:06:27.301Z,94.10
2022-10-06T06:08:55.305Z,94.20
2022-10-06T06:11:27.643Z,94.20
2022-10-06T06:13:58.179Z,94.30
2022-10-06T06:16:25.348Z,94.30
2022-10-06T06:18:52.497Z,94.40
2022-10-06T06:21:19.112Z,94.50
2022-10-06T06:23:46.882Z,94.60
2022-10-06T06:26:15.259Z,94.70
2022-10-06T06:28:42.395Z,94.70
2022-10-06T06:31:10.855Z,94.80
2022-10-06T06:33:38.545Z,94.90
2022-10-06T06:36:13.995Z,94.90
2022-10-06T06:38:40.912Z,95.10
2022-10-06T06:41:14.599Z,95.20
2022-10-06T06:43:42.020Z,95.20
2022-10-06T06:46:15.482Z,95.30
2022-10-06T06:48:42.665Z,95.40
2022-10-06T06:51:11.901Z,95.50
2022-10-06T06:53:39.202Z,95.50
2022-10-06T06:56:06.583Z,95.60
2022-10-06T06:58:33.643Z,95.60
2022-10-06T07:01:08.333Z,95.70
2022-10-06T07:06:27.779Z,95.90
2022-10-06T07:08:58.525Z,95.90
2022-10-06T07:11:32.298Z,96.00
2022-10-06T07:14:01.360Z,96.00
2022-10-06T07:16:47.451Z,95.90
2022-10-06T07:19:32.950Z,95.30
2022-10-06T07:22:19.329Z,94.90
2022-10-06T07:25:05.770Z,93.90
2022-10-06T07:27:45.924Z,92.80
2022-10-06T07:30:22.368Z,91.80
2022-10-06T07:32:50.234Z,90.90
2022-10-06T07:35:22.864Z,91.10
2022-10-06T07:37:53.273Z,90.50
2022-10-06T07:40:20.003Z,89.80
2022-10-06T07:42:50.351Z,88.30
2022-10-06T07:45:38.956Z,88.00
2022-10-06T07:48:09.077Z,87.50
2022-10-06T07:50:38.035Z,86.40
2022-10-06T07:53:08.658Z,86.70
2022-10-06T07:55:36.514Z,85.70
2022-10-06T07:58:03.195Z,86.40
2022-10-06T08:02:59.857Z,84.50
2022-10-06T08:05:26.598Z,81.50
2022-10-06T08:07:53.617Z,79.90
2022-10-06T08:10:20.849Z,79.80
2022-10-06T09:58:42.793Z,67.20
2022-10-06T10:04:20.459Z,69.30
2022-10-06T10:06:47.737Z,69.90
2022-10-06T10:09:22.127Z,67.60
2022-10-06T10:12:20.437Z,67.60
2022-10-06T10:14:49.790Z,67.90
2022-10-06T10:17:32.729Z,68.60
2022-10-06T10:20:01.055Z,67.40
2022-10-06T10:22:33.082Z,67.00
2022-10-06T10:27:52.620Z,67.20
2022-10-06T10:33:04.522Z,67.60
2022-10-06T10:35:32.637Z,67.10
2022-10-06T10:38:14.943Z,65.90
2022-10-06T10:43:48.149Z,66.00
2022-10-06T10:46:22.595Z,64.90
2022-10-06T10:49:01.905Z,65.40
2022-10-06T10:51:36.100Z,65.20
2022-10-06T10:54:11.498Z,65.60
2022-10-06T10:56:38.300Z,63.70
2022-10-06T10:59:15.386Z,64.30
2022-10-06T11:02:00.563Z,66.10
2022-10-06T11:04:27.552Z,64.30
2022-10-06T11:07:10.339Z,64.70
2022-10-06T11:09:37.006Z,63.20
2022-10-06T11:12:26.664Z,64.10
2022-10-06T11:14:55.806Z,64.60
2022-10-06T11:17:44.391Z,62.90
2022-10-06T11:20:29.366Z,64.60
2022-10-06T11:23:14.723Z,63.70
2022-10-06T11:25:48.069Z,62.20
2022-10-06T11:28:17.337Z,62.10
2022-10-06T11:30:50.091Z,61.70
2022-10-06T11:33:20.660Z,60.40
2022-10-06T11:35:48.360Z,61.20
2022-10-06T11:38:27.183Z,61.20
2022-10-06T11:40:59.798Z,61.30
2022-10-06T11:43:41.701Z,60.40
2022-10-06T11:46:09.413Z,61.10
2022-10-06T11:48:36.128Z,60.50
2022-10-06T11:51:26.151Z,60.50
2022-10-06T11:53:53.097Z,61.00
2022-10-06T11:56:21.969Z,61.30
2022-10-06T11:58:54.704Z,61.70
2022-10-06T12:01:30.674Z,62.40
2022-10-06T12:04:11.219Z,64.50
2022-10-06T12:06:51.602Z,61.90
2022-10-06T12:09:38.505Z,62.00
2022-10-06T12:12:36.065Z,63.20
2022-10-06T12:17:05.069Z,64.00
2022-10-06T12:18:05.074Z,63.80
2022-10-06T12:20:38.349Z,63.30
2022-10-06T12:23:16.106Z,61.80
2022-10-06T12:25:49.567Z,61.00
2022-10-06T12:28:22.438Z,62.60
2022-10-06T12:31:07.890Z,60.70
2022-10-06T12:33:37.968Z,61.10
2022-10-06T12:36:15.561Z,61.50
2022-10-06T12:38:43.780Z,61.50
2022-10-06T12:41:11.495Z,60.40
2022-10-06T12:43:49.752Z,60.90
2022-10-06T12:46:22.088Z,61.20
2022-10-06T12:49:09.236Z,61.20
2022-10-06T12:51:39.145Z,61.10
2022-10-06T12:54:19.536Z,59.40
2022-10-06T12:56:58.766Z,59.30
2022-10-06T12:59:25.753Z,59.10
2022-10-06T13:01:54.918Z,59.40
2022-10-06T13:04:40.570Z,60.50
2022-10-06T13:07:22.234Z,60.50
2022-10-06T13:09:50.601Z,60.50
2022-10-06T13:12:23.567Z,59.10
2022-10-06T13:15:33.303Z,59.10
2022-10-06T13:18:00.331Z,60.90
2022-10-06T13:20:42.357Z,60.30
2022-10-06T13:23:12.393Z,62.30
2022-10-06T13:25:47.691Z,60.60
2022-10-06T13:28:21.845Z,60.90
2022-10-06T13:30:52.254Z,59.80
2022-10-06T13:33:19.105Z,59.70
2022-10-06T13:35:48.895Z,60.20
2022-10-06T13:38:15.891Z,60.80
2022-10-06T13:40:44.968Z,60.70
2022-10-06T13:43:17.019Z,59.50
2022-10-06T13:45:46.005Z,59.90
2022-10-06T13:48:18.104Z,59.10
2022-10-06T13:50:49.814Z,59.40
2022-10-06T13:53:27.975Z,59.40
2022-10-06T13:55:54.852Z,58.70
2022-10-06T13:58:25.013Z,58.90
2022-10-06T14:00:55.960Z,59.00
2022-10-06T14:03:29.006Z,59.40
2022-10-06T14:06:13.449Z,58.60
2022-10-06T14:08:42.614Z,58.60
2022-10-06T14:11:10.331Z,58.90
2022-10-06T14:13:55.799Z,58.90
2022-10-06T14:16:24.708Z,57.60
2022-10-06T14:19:00.043Z,59.40
2022-10-06T14:21:36.884Z,59.30
2022-10-06T14:24:16.357Z,60.10
2022-10-06T14:26:43.974Z,60.00
2022-10-06T14:29:10.980Z,59.90
2022-10-06T14:31:37.813Z,60.30
2022-10-06T14:34:05.669Z,60.00
2022-10-06T14:36:35.412Z,60.10
2022-10-06T14:39:04.240Z,60.50
2022-10-06T14:41:31.171Z,61.20
2022-10-06T14:44:01.324Z,61.20
2022-10-06T14:46:28.573Z,60.40
2022-10-06T14:48:55.738Z,60.10
2022-10-06T14:51:24.548Z,60.40
2022-10-06T14:53:58.822Z,60.70
2022-10-06T14:56:29.071Z,60.70
2022-10-06T14:58:55.924Z,61.40
2022-10-06T15:01:25.168Z,62.30
2022-10-06T15:03:58.194Z,61.60
2022-10-06T15:06:44.186Z,62.90
2022-10-06T15:09:11.153Z,62.00
2022-10-06T15:11:44.049Z,62.50
2022-10-06T15:14:11.808Z,62.50
2022-10-06T15:16:46.523Z,63.10
2022-10-06T15:19:13.253Z,62.80
2022-10-06T15:21:40.974Z,63.20
2022-10-06T15:24:11.474Z,62.90
2022-10-06T15:27:03.191Z,63.90
2022-10-06T15:29:35.546Z,63.50
2022-10-06T15:32:06.429Z,63.90
2022-10-06T15:34:34.559Z,63.30
2022-10-06T15:37:01.806Z,63.70
2022-10-06T15:39:30.112Z,64.50
2022-10-06T15:41:59.952Z,64.40
2022-10-06T15:44:26.586Z,65.80
2022-10-06T15:46:57.175Z,66.20
2022-10-06T15:49:27.490Z,66.60
2022-10-06T15:52:02.789Z,66.90
2022-10-06T15:54:29.914Z,67.80
2022-10-06T15:56:57.702Z,67.90
2022-10-06T15:59:26.539Z,67.90
2022-10-06T16:01:56.663Z,68.50
2022-10-06T16:04:39.677Z,69.10
2022-10-06T16:07:07.495Z,69.90
2022-10-06T16:09:43.079Z,70.80
2022-10-06T16:12:12.569Z,70.80
2022-10-06T16:14:39.178Z,71.20
2022-10-06T16:17:08.353Z,72.00
2022-10-06T16:19:40.771Z,72.20
2022-10-06T16:22:08.900Z,72.80
2022-10-06T16:24:36.569Z,73.60
2022-10-06T16:27:03.283Z,74.00
2022-10-06T16:29:30.289Z,74.10
2022-10-06T16:31:59.673Z,74.20
2022-10-06T16:34:27.604Z,75.10
2022-10-06T16:36:54.318Z,75.80
2022-10-06T16:39:22.479Z,75.60
2022-10-06T16:41:49.659Z,76.70
2022-10-06T16:44:17.175Z,77.50
2022-10-06T16:46:45.059Z,76.80
2022-10-06T16:49:12.281Z,77.70
2022-10-06T16:51:40.411Z,78.30
2022-10-06T16:54:08.404Z,77.60
2022-10-06T16:56:37.560Z,77.70
2022-10-06T16:59:06.689Z,77.70
2022-10-06T17:01:36.490Z,80.10
2022-10-06T17:04:07.973Z,80.00
2022-10-06T17:06:44.459Z,79.40
2022-10-06T17:09:14.010Z,78.90
2022-10-06T17:11:44.224Z,79.30
2022-10-06T17:14:17.246Z,80.30
2022-10-06T17:16:47.309Z,81.30
2022-10-06T17:19:15.657Z,80.90
2022-10-06T17:21:48.792Z,80.70
2022-10-06T17:24:18.004Z,81.10
2022-10-06T17:26:46.952Z,81.20
2022-10-06T17:29:23.743Z,81.70
2022-10-06T17:31:53.331Z,81.80
2022-10-06T17:34:22.942Z,82.50
2022-10-06T17:36:51.231Z,83.60
2022-10-06T17:39:19.212Z,83.10
2022-10-06T17:41:50.304Z,83.40
2022-10-06T17:44:22.516Z,83.10
2022-10-06T17:46:51.404Z,83.20
2022-10-06T17:49:23.877Z,83.80
2022-10-06T17:51:51.438Z,83.90
2022-10-06T17:54:20.129Z,83.80
2022-10-06T17:56:48.265Z,83.60
2022-10-06T17:59:23.282Z,83.90
2022-10-06T18:01:56.839Z,83.90
2022-10-06T18:04:24.221Z,84.10
2022-10-06T18:06:52.871Z,85.10
2022-10-06T18:09:21.045Z,85.00
2022-10-06T18:11:54.857Z,85.00
2022-10-06T18:14:22.429Z,84.90
2022-10-06T18:16:55.088Z,85.20
2022-10-06T18:19:30.286Z,85.40
2022-10-06T18:22:09.056Z,85.30
2022-10-06T18:24:36.415Z,85.30
2022-10-06T18:27:05.065Z,85.00
2022-10-06T18:29:35.935Z,85.10
2022-10-06T18:32:40.507Z,85.10
2022-10-06T18:37:40.321Z,85.20
2022-10-06T18:40:09.926Z,85.40
2022-10-06T18:42:42.832Z,85.60
2022-10-06T18:45:33.212Z,85.80
2022-10-06T18:48:21.912Z,85.40
2022-10-06T18:50:58.933Z,85.10
2022-10-06T18:53:27.770Z,85.20
2022-10-06T18:55:57.583Z,85.50
2022-10-06T18:58:24.760Z,85.10
2022-10-06T19:00:51.603Z,85.20
2022-10-06T19:03:23.372Z,85.30
2022-10-06T19:05:54.890Z,85.30
2022-10-06T19:08:21.521Z,85.20
2022-10-06T19:11:06.954Z,86.10
2022-10-06T19:13:33.729Z,86.20
2022-10-06T19:16:01.644Z,86.00
2022-10-06T19:18:36.549Z,86.00
2022-10-06T19:21:09.304Z,86.40
2022-10-06T19:23:37.030Z,86.60
2022-10-06T19:26:11.662Z,86.30
2022-10-06T19:28:39.843Z,85.90
2022-10-06T19:31:13.975Z,86.40
2022-10-06T19:33:40.901Z,86.40
2022-10-06T19:36:08.765Z,86.20
2022-10-06T19:38:39.150Z,86.00
2022-10-06T19:41:24.454Z,86.00
2022-10-06T19:43:58.422Z,86.30
2022-10-06T19:46:27.111Z,86.10
2022-10-06T19:48:58.503Z,86.30
2022-10-06T19:51:25.457Z,86.30
2022-10-06T19:53:52.402Z,86.50
2022-10-06T19:56:21.159Z,86.30
2022-10-06T19:58:49.781Z,86.30
2022-10-06T20:01:20.689Z,86.40
2022-10-06T20:03:47.524Z,86.00
2022-10-06T20:06:15.026Z,86.30
2022-10-06T20:08:42.860Z,87.00
2022-10-06T20:11:12.348Z,86.70
2022-10-06T20:13:39.944Z,87.10
2022-10-06T20:16:08.597Z,86.90
2022-10-06T20:18:36.786Z,86.80
2022-10-06T20:21:03.632Z,86.70
2022-10-06T20:23:30.481Z,86.90
2022-10-06T20:26:07.012Z,86.70
2022-10-06T20:28:34.018Z,87.00
2022-10-06T20:31:01.604Z,86.90
2022-10-06T20:33:28.360Z,86.70
2022-10-06T20:35:59.445Z,87.00
2022-10-06T20:38:46.154Z,87.10
2022-10-06T20:41:15.734Z,86.70
2022-10-06T20:43:43.156Z,86.90
2022-10-06T20:46:10.189Z,87.30
2022-10-06T20:48:36.950Z,87.20
2022-10-06T20:51:09.173Z,87.30
2022-10-06T20:53:35.787Z,87.00
2022-10-06T20:56:03.940Z,86.80
2022-10-06T20:58:30.824Z,86.80
2022-10-06T21:01:06.093Z,87.00
2022-10-06T21:03:35.814Z,86.90
2022-10-06T21:06:04.842Z,86.90
2022-10-06T21:08:31.785Z,87.30
2022-10-06T21:11:02.331Z,87.40
2022-10-06T21:13:30.545Z,87.30
2022-10-06T21:15:57.826Z,87.10
2022-10-06T21:18:29.496Z,87.00
2022-10-06T21:21:06.616Z,87.00
2022-10-06T21:23:47.940Z,86.90
2022-10-06T21:26:15.304Z,86.80
2022-10-06T21:28:42.435Z,87.10
2022-10-06T21:31:16.361Z,87.10
2022-10-06T21:33:45.151Z,87.40
2022-10-06T21:36:14.905Z,87.20
2022-10-06T21:38:42.795Z,87.20
2022-10-06T21:41:29.509Z,87.60
2022-10-06T21:43:59.820Z,87.50
2022-10-06T21:46:29.086Z,87.80
2022-10-06T21:48:57.013Z,88.10
2022-10-06T21:51:27.663Z,87.70
2022-10-06T21:53:56.148Z,87.50
2022-10-06T21:56:28.606Z,87.50
2022-10-06T21:58:56.808Z,87.70
2022-10-06T22:01:25.338Z,87.60
2022-10-06T22:03:53.299Z,87.60
2022-10-06T22:06:20.459Z,87.80
2022-10-06T22:08:47.418Z,88.00
2022-10-06T22:11:18.153Z,88.00
2022-10-06T22:13:46.367Z,88.20
2022-10-06T22:16:15.418Z,88.20
2022-10-06T22:18:42.723Z,88.40
2022-10-06T22:21:15.411Z,88.40
2022-10-06T22:23:43.140Z,88.20
2022-10-06T22:26:10.991Z,88.20
2022-10-06T22:28:37.971Z,88.40
2022-10-06T22:31:11.564Z,88.30
2022-10-06T22:33:39.492Z,88.30
2022-10-06T22:36:07.593Z,88.30
2022-10-06T22:38:34.835Z,88.30
2022-10-06T22:41:02.149Z,88.20
2022-10-06T22:43:28.902Z,88.10
2022-10-06T22:45:56.136Z,88.00
2022-10-06T22:48:25.869Z,87.80
2022-10-06T22:50:52.929Z,87.90
2022-10-06T22:53:20.555Z,88.00
2022-10-06T22:55:47.561Z,88.00
2022-10-06T22:58:14.958Z,88.00
2022-10-06T23:00:42.118Z,88.00
2022-10-06T23:03:09.003Z,88.00
2022-10-06T23:05:35.862Z,87.80
2022-10-06T23:08:03.426Z,87.60
2022-10-06T23:10:30.652Z,87.50
2022-10-06T23:12:58.009Z,87.80
2022-10-06T23:15:25.351Z,87.80
2022-10-06T23:17:52.399Z,88.10
2022-10-06T23:20:21.242Z,87.90
2022-10-06T23:22:48.158Z,88.00
2022-10-06T23:25:14.943Z,88.10
2022-10-06T23:27:44.337Z,88.30
2022-10-06T23:30:11.451Z,88.00
2022-10-06T23:32:40.689Z,88.10
2022-10-06T23:35:09.416Z,88.30
2022-10-06T23:37:36.807Z,88.40
2022-10-06T23:40:04.593Z,88.20
2022-10-06T23:42:31.641Z,88.00
2022-10-06T23:44:58.493Z,88.00
2022-10-06T23:47:25.355Z,88.00
2022-10-06T23:49:52.175Z,88.30
2022-10-06T23:52:21.245Z,88.20
2022-10-06T23:54:54.083Z,88.40
2022-10-06T23:57:20.912Z,88.20
2022-10-06T23:59:47.717Z,88.30
